Accueil
METAR-TAF:

METAR-TAF

Aéroports :

Aérodrome de Forlì

Forlì, Italie

latitude: 44-12N, longitude: 012-04E, altitude: 27 m

Observation

Le bulletin a été fait il y a 1 heure et 17 minutes, à 17:50 UTC
Vent 10 kt de ouest/sud-ouest
Température 26°C
Humidité 45%
Pression 1008 hPa
Visibilité 10 km ou plus
pas de nuages en-dessous de 1500 mètres et pas de cumulonimbus.

METAR: LIPK 221750Z 25010KT CAVOK 26/13 Q1008

Heure: 21:07 (19:07 UTC)

Prévision

Le bulletin a été fait il y a 2 heures et 7 minutes, à 17:00 UTC
Prévision valable du 22 à 18 UTC au 23 à 18 UTC
Vent 12 kt de ouest/sud-ouest
Visibilité 10 km ou plus
pas de nuages en-dessous de 1500 mètres et pas de cumulonimbus.
Evoluant progressivement
du 22 à 22 UTC au 22 à 24 UTC
Vent 5 kt de direction variable

TAF: LIPK 221700Z 2218/2318 24012KT CAVOK BECMG 2222/2224 VRB05KT

Observations et prévisions météorologiques de plus de 4000 aéroports (messages METAR et TAF).

Les stations disponibles sont représentées par des disques jaunes et rouges sur la carte.

Passer la souris dessus pour voir le nom de la station.

Cliquer dessus pour voir les observations et prévisions météorologiques.

Pour changer de carte: cliquez sur les boutons verts avec une croix noire pour zoomer, sur le bouton vert avec un tiret pour effectuer un zoom arrière, ou sur les flèches vertes pour les cartes adjacentes.


METAR-TAF: